Time;durP1;ratioP1;P1;durP2;ratioP2;P2;SDS_P1;SDS_P2;PMS_P1;PMS_P2;Temp;Humidity;BMP_temperature;BMP_pressure;BME280_temperature;BME280_humidity;BME280_pressure;Samples;Min_cycle;Max_cycle;Signal;HPM_P1;HPM_P2
2023/11/01 00:00:56;;;;;;;4.90;2.30;;;12.30;99.90;;;;;;5019125;28;20900;-79
2023/11/01 00:03:23;;;;;;;3.13;2.00;;;12.40;99.90;;;;;;5019860;28;20860;-79
2023/11/01 00:05:49;;;;;;;5.60;2.10;;;12.40;99.90;;;;;;5020588;28;20988;-81
2023/11/01 00:08:16;;;;;;;5.63;2.20;;;12.40;99.90;;;;;;5020804;28;20547;-81
2023/11/01 00:10:43;;;;;;;4.13;2.00;;;12.40;99.90;;;;;;5019748;28;20960;-83
2023/11/01 00:13:10;;;;;;;7.13;3.57;;;12.40;99.90;;;;;;5019844;28;20464;-81
2023/11/01 00:15:38;;;;;;;5.60;2.20;;;12.30;99.90;;;;;;5020094;28;20457;-82
2023/11/01 00:18:05;;;;;;;5.83;1.80;;;12.40;99.90;;;;;;5018975;28;20461;-81
2023/11/01 00:20:34;;;;;;;7.17;2.10;;;12.40;99.90;;;;;;5019600;28;20461;-83
2023/11/01 00:23:01;;;;;;;10.20;2.17;;;12.30;99.90;;;;;;5019446;28;20467;-80
2023/11/01 00:25:27;;;;;;;3.70;2.13;;;12.30;99.90;;;;;;5019741;28;20458;-81
2023/11/01 00:27:54;;;;;;;4.43;1.93;;;12.40;99.90;;;;;;5018953;28;20454;-81
2023/11/01 00:30:21;;;;;;;9.03;2.33;;;12.40;99.90;;;;;;5020129;28;20842;-79
2023/11/01 00:32:50;;;;;;;6.40;2.13;;;12.50;99.90;;;;;;5019888;28;20461;-79
2023/11/01 00:35:17;;;;;;;6.47;2.53;;;12.50;99.90;;;;;;5019005;28;20576;-79
2023/11/01 00:37:47;;;;;;;7.43;2.13;;;12.40;99.90;;;;;;5019000;28;20490;-79
2023/11/01 00:40:14;;;;;;;7.77;2.73;;;12.40;99.90;;;;;;5019378;28;20523;-79
2023/11/01 00:42:42;;;;;;;5.57;2.10;;;12.40;99.90;;;;;;5019954;28;20503;-80
2023/11/01 00:45:09;;;;;;;6.00;3.10;;;12.50;99.90;;;;;;5018381;28;20485;-79
2023/11/01 00:47:36;;;;;;;5.13;2.30;;;12.50;99.90;;;;;;5018759;28;20465;-79
2023/11/01 00:50:05;;;;;;;5.43;2.20;;;12.50;99.90;;;;;;5018567;28;20473;-80
2023/11/01 00:52:32;;;;;;;4.47;1.67;;;12.50;99.90;;;;;;5019212;28;20453;-78
2023/11/01 00:54:59;;;;;;;6.03;2.23;;;12.50;99.90;;;;;;5018476;28;20483;-80
2023/11/01 00:57:26;;;;;;;6.80;3.00;;;12.60;99.90;;;;;;5018655;28;20452;-80
2023/11/01 00:59:53;;;;;;;6.03;2.43;;;12.60;99.90;;;;;;5018306;28;20476;-80
2023/11/01 01:02:22;;;;;;;9.03;2.80;;;12.60;99.90;;;;;;5018773;28;20594;-80
2023/11/01 01:04:49;;;;;;;4.67;2.07;;;12.60;99.90;;;;;;5017958;28;20488;-79
2023/11/01 01:07:17;;;;;;;4.27;2.00;;;12.60;99.90;;;;;;5018625;28;20459;-79
2023/11/01 01:09:44;;;;;;;3.80;2.40;;;12.70;99.90;;;;;;5018155;28;20458;-79
2023/11/01 01:12:11;;;;;;;5.03;1.97;;;12.70;99.90;;;;;;5017501;28;20450;-79
2023/11/01 01:14:39;;;;;;;4.83;2.40;;;12.70;99.90;;;;;;5018416;28;20480;-78
2023/11/01 01:17:06;;;;;;;5.00;2.60;;;12.70;99.90;;;;;;5018007;28;20451;-80
2023/11/01 01:19:33;;;;;;;5.13;2.23;;;12.70;99.90;;;;;;5021060;28;20467;-80
2023/11/01 01:22:00;;;;;;;7.70;2.27;;;12.70;99.90;;;;;;5018482;28;20489;-80
2023/11/01 01:24:28;;;;;;;5.93;1.80;;;12.70;99.90;;;;;;5018344;28;20478;-80
2023/11/01 01:26:55;;;;;;;3.90;2.50;;;12.70;99.90;;;;;;5018157;28;20454;-80
2023/11/01 01:29:22;;;;;;;4.43;2.00;;;12.70;99.90;;;;;;5017976;28;20547;-79
2023/11/01 01:31:49;;;;;;;7.70;2.23;;;12.70;99.90;;;;;;5017911;28;20445;-79
2023/11/01 01:34:15;;;;;;;4.83;1.97;;;12.60;99.90;;;;;;5018172;28;20484;-80
2023/11/01 01:36:45;;;;;;;5.60;1.90;;;12.60;99.90;;;;;;5018646;28;20457;-80
2023/11/01 01:39:11;;;;;;;5.03;2.07;;;12.70;99.90;;;;;;5018627;28;20466;-80
2023/11/01 01:41:40;;;;;;;4.53;2.10;;;12.70;99.90;;;;;;5018280;28;20514;-81
2023/11/01 01:44:06;;;;;;;3.10;2.30;;;12.60;99.90;;;;;;5018471;28;20473;-81
2023/11/01 01:46:34;;;;;;;3.93;1.93;;;12.60;99.90;;;;;;5018783;28;20514;-80
2023/11/01 01:49:01;;;;;;;4.03;1.97;;;12.60;99.90;;;;;;5018948;28;20844;-81
2023/11/01 01:51:28;;;;;;;8.00;2.33;;;12.60;99.90;;;;;;5020245;28;20518;-81
2023/11/01 01:53:55;;;;;;;9.50;2.43;;;12.60;99.90;;;;;;5019011;28;20947;-80
2023/11/01 01:56:22;;;;;;;3.40;1.70;;;12.60;99.90;;;;;;5019630;28;20461;-80
2023/11/01 01:58:51;;;;;;;3.90;2.17;;;12.60;99.90;;;;;;5019342;28;20461;-81
2023/11/01 02:01:20;;;;;;;4.70;1.70;;;12.60;99.90;;;;;;5020371;28;20501;-81
2023/11/01 02:03:47;;;;;;;6.90;2.37;;;12.60;99.90;;;;;;5018286;28;20482;-80
2023/11/01 02:06:13;;;;;;;7.67;1.70;;;12.60;99.90;;;;;;5018814;28;20449;-81
2023/11/01 02:08:40;;;;;;;3.97;2.57;;;12.60;99.90;;;;;;5019056;28;20834;-80
2023/11/01 02:11:07;;;;;;;5.50;1.97;;;12.50;99.90;;;;;;5018970;28;20551;-81
2023/11/01 02:13:34;;;;;;;6.63;1.90;;;12.50;99.90;;;;;;5019162;28;20466;-81
2023/11/01 02:16:02;;;;;;;3.90;1.80;;;12.60;99.90;;;;;;5019359;28;20461;-80
2023/11/01 02:18:29;;;;;;;4.23;1.93;;;12.60;99.90;;;;;;5018100;28;20847;-80
2023/11/01 02:20:56;;;;;;;6.43;1.60;;;12.60;99.90;;;;;;5018406;28;20536;-80
2023/11/01 02:23:32;;;;;;;5.13;1.57;;;12.60;99.90;;;;;;5017179;28;20486;-78
2023/11/01 02:25:59;;;;;;;6.17;1.80;;;12.60;99.90;;;;;;5017068;28;20456;-79
2023/11/01 02:28:26;;;;;;;7.97;1.60;;;12.60;99.90;;;;;;5016686;28;20896;-79
2023/11/01 02:30:53;;;;;;;5.30;2.17;;;12.60;99.90;;;;;;5016927;28;20457;-79
2023/11/01 02:33:20;;;;;;;5.37;1.60;;;12.60;99.90;;;;;;5016416;28;20475;-80
2023/11/01 02:35:46;;;;;;;6.40;1.53;;;12.60;99.90;;;;;;5017469;28;20531;-80
2023/11/01 02:38:21;;;;;;;3.23;1.50;;;12.60;99.90;;;;;;5008876;28;20454;-82
2023/11/01 02:40:50;;;;;;;3.43;2.00;;;12.60;99.90;;;;;;5016741;28;20545;-79
2023/11/01 02:43:19;;;;;;;3.80;1.93;;;12.60;99.90;;;;;;5016036;28;20493;-81
2023/11/01 02:45:46;;;;;;;4.73;2.20;;;12.50;99.90;;;;;;5016788;28;20980;-79
2023/11/01 02:48:13;;;;;;;3.17;1.90;;;12.50;99.90;;;;;;5015699;28;20445;-80
2023/11/01 02:50:40;;;;;;;3.40;1.20;;;12.50;99.90;;;;;;5014540;28;20461;-80
2023/11/01 02:53:06;;;;;;;2.87;1.60;;;12.50;99.90;;;;;;5014249;28;20442;-81
2023/11/01 02:55:33;;;;;;;5.33;2.30;;;12.50;99.90;;;;;;5014484;28;20816;-80
2023/11/01 02:58:03;;;;;;;3.20;1.77;;;12.50;99.90;;;;;;5014482;28;20459;-80
2023/11/01 03:00:31;;;;;;;4.20;1.73;;;12.50;99.90;;;;;;5014642;28;20453;-80
2023/11/01 03:02:58;;;;;;;4.00;1.80;;;12.50;99.90;;;;;;5014014;28;20489;-81
2023/11/01 03:05:25;;;;;;;3.90;2.43;;;12.40;99.90;;;;;;5014379;28;20457;-80
2023/11/01 03:07:53;;;;;;;2.77;1.63;;;12.50;99.90;;;;;;5013531;28;20452;-79
2023/11/01 03:10:20;;;;;;;7.87;1.57;;;12.50;99.90;;;;;;5014594;28;20487;-80
2023/11/01 03:12:47;;;;;;;7.23;1.90;;;12.40;99.90;;;;;;5014807;28;20459;-80
2023/11/01 03:15:15;;;;;;;4.20;1.47;;;12.30;99.90;;;;;;5014426;28;20470;-81
2023/11/01 03:17:42;;;;;;;3.37;1.60;;;12.30;99.90;;;;;;5014166;28;20460;-80
2023/11/01 03:20:10;;;;;;;2.63;1.50;;;12.30;99.90;;;;;;5014667;28;20544;-80
2023/11/01 03:22:38;;;;;;;4.83;1.40;;;12.30;99.90;;;;;;5014572;28;20497;-80
2023/11/01 03:25:05;;;;;;;4.57;1.67;;;12.30;99.90;;;;;;5014821;28;20481;-81
2023/11/01 03:27:37;;;;;;;4.00;1.53;;;12.40;99.90;;;;;;5014199;28;20467;-82
2023/11/01 03:30:04;;;;;;;4.57;1.60;;;12.40;99.90;;;;;;5013921;28;20453;-81
2023/11/01 03:32:33;;;;;;;4.17;1.30;;;12.40;99.90;;;;;;5014268;28;20512;-81
2023/11/01 03:34:59;;;;;;;2.97;1.47;;;12.30;99.90;;;;;;5013669;28;20482;-81
2023/11/01 03:37:26;;;;;;;8.57;1.77;;;12.30;99.90;;;;;;5014127;28;20463;-82
2023/11/01 03:39:53;;;;;;;5.30;2.03;;;12.30;99.90;;;;;;5014136;28;20495;-81
2023/11/01 03:42:21;;;;;;;6.80;1.80;;;12.30;99.90;;;;;;5013967;28;20492;-82
2023/11/01 03:44:49;;;;;;;2.50;1.30;;;12.20;99.90;;;;;;5014215;28;20477;-80
2023/11/01 03:47:16;;;;;;;3.37;1.17;;;12.30;99.90;;;;;;5013675;28;20505;-82
2023/11/01 03:49:44;;;;;;;3.50;1.60;;;12.40;99.90;;;;;;5013955;28;20451;-81
2023/11/01 03:52:11;;;;;;;3.57;1.60;;;12.40;99.90;;;;;;5015057;28;20887;-82
2023/11/01 03:54:38;;;;;;;3.17;1.00;;;12.40;99.90;;;;;;5015112;28;20470;-82
2023/11/01 03:57:07;;;;;;;5.80;1.77;;;12.40;99.90;;;;;;5015687;28;20460;-82
2023/11/01 03:59:33;;;;;;;4.13;1.27;;;12.40;99.90;;;;;;5014190;28;20463;-83
2023/11/01 04:02:00;;;;;;;5.33;1.50;;;12.30;99.90;;;;;;5013492;28;20495;-81
2023/11/01 04:04:27;;;;;;;3.63;1.10;;;12.30;99.90;;;;;;5014953;28;20485;-80
2023/11/01 04:06:55;;;;;;;5.20;1.53;;;12.20;99.90;;;;;;5016000;28;20456;-84
2023/11/01 04:09:22;;;;;;;3.00;1.33;;;12.20;99.90;;;;;;5017759;28;20455;-81
2023/11/01 04:11:49;;;;;;;4.13;1.27;;;12.20;99.90;;;;;;5018756;28;20969;-81
2023/11/01 04:14:22;;;;;;;3.57;1.50;;;12.20;99.90;;;;;;5018508;28;20482;-82
2023/11/01 04:16:51;;;;;;;3.50;1.43;;;12.20;99.90;;;;;;5018263;28;20469;-81
2023/11/01 04:19:18;;;;;;;2.97;1.40;;;12.20;99.90;;;;;;5017324;28;20450;-83
2023/11/01 04:21:45;;;;;;;3.93;1.27;;;12.20;99.90;;;;;;5018297;28;20462;-82
2023/11/01 04:24:13;;;;;;;3.57;1.20;;;12.20;99.90;;;;;;5018634;28;20543;-81
2023/11/01 04:26:42;;;;;;;5.53;1.20;;;12.20;99.90;;;;;;5016591;28;20462;-82
2023/11/01 04:29:09;;;;;;;2.80;1.10;;;12.10;99.90;;;;;;5023600;28;20811;-82
2023/11/01 04:31:36;;;;;;;4.60;1.43;;;12.00;99.90;;;;;;5022039;28;20453;-81
2023/11/01 04:34:02;;;;;;;2.87;1.30;;;12.10;99.90;;;;;;5018690;28;20549;-82
2023/11/01 04:36:35;;;;;;;2.40;1.10;;;12.10;99.90;;;;;;5025350;28;20556;-80
2023/11/01 04:39:03;;;;;;;3.57;1.10;;;12.00;99.90;;;;;;5024045;28;20494;-82
2023/11/01 04:41:31;;;;;;;6.60;1.33;;;12.10;99.90;;;;;;5015555;28;20498;-81
2023/11/01 04:43:59;;;;;;;4.87;1.97;;;12.00;99.90;;;;;;5019442;28;20506;-81
2023/11/01 04:46:26;;;;;;;2.80;1.40;;;12.00;99.90;;;;;;5017862;28;20513;-80
2023/11/01 04:48:54;;;;;;;2.67;1.50;;;12.10;99.90;;;;;;5016331;28;20456;-80
2023/11/01 04:51:21;;;;;;;7.43;2.77;;;12.20;99.90;;;;;;5019242;28;20459;-81
2023/11/01 04:53:48;;;;;;;2.37;1.20;;;12.20;99.90;;;;;;5017146;28;20475;-80
2023/11/01 04:56:15;;;;;;;4.13;1.40;;;12.20;99.90;;;;;;5016733;28;20467;-80
2023/11/01 04:58:43;;;;;;;2.53;1.00;;;12.20;99.90;;;;;;5015590;28;20456;-81
2023/11/01 05:01:10;;;;;;;2.93;1.30;;;12.20;99.90;;;;;;5015819;28;20461;-84
2023/11/01 05:03:38;;;;;;;2.17;1.10;;;12.20;99.90;;;;;;5015455;28;20891;-80
2023/11/01 05:06:05;;;;;;;4.47;1.10;;;12.20;99.90;;;;;;5015651;28;20463;-80
2023/11/01 05:08:32;;;;;;;3.40;0.90;;;12.20;99.90;;;;;;5015190;28;20465;-80
2023/11/01 05:10:59;;;;;;;2.17;1.20;;;12.20;99.90;;;;;;5015890;28;20835;-81
2023/11/01 05:13:35;;;;;;;3.63;1.00;;;12.20;99.90;;;;;;5015812;28;20468;-83
2023/11/01 05:16:03;;;;;;;3.53;1.30;;;12.20;99.90;;;;;;5015625;28;20454;-82
2023/11/01 05:18:31;;;;;;;4.23;1.77;;;12.30;99.90;;;;;;5015401;28;20903;-82
2023/11/01 05:20:58;;;;;;;2.00;0.97;;;12.20;99.90;;;;;;5015090;28;20970;-82
2023/11/01 05:23:24;;;;;;;3.00;1.20;;;12.20;99.90;;;;;;5015536;28;20757;-81
2023/11/01 05:25:51;;;;;;;3.30;1.43;;;12.20;99.90;;;;;;5015667;28;20461;-83
2023/11/01 05:28:18;;;;;;;2.10;1.27;;;12.20;99.90;;;;;;5015643;28;20460;-83
2023/11/01 05:30:49;;;;;;;2.30;1.00;;;12.20;99.90;;;;;;5016079;28;20488;-81
2023/11/01 05:33:18;;;;;;;3.03;1.43;;;12.30;99.90;;;;;;5015543;28;20464;-81
2023/11/01 05:35:45;;;;;;;3.30;1.30;;;12.30;99.90;;;;;;5015798;28;20505;-81
2023/11/01 05:38:13;;;;;;;2.00;1.20;;;12.20;99.90;;;;;;5015189;28;20458;-82
2023/11/01 05:40:39;;;;;;;2.57;1.23;;;12.20;99.90;;;;;;5015386;28;20504;-82
2023/11/01 05:43:07;;;;;;;3.10;1.20;;;12.20;99.90;;;;;;5015143;28;20737;-81
2023/11/01 05:45:34;;;;;;;2.23;1.10;;;12.30;99.90;;;;;;5015521;28;20459;-82
2023/11/01 05:48:07;;;;;;;6.83;1.40;;;12.30;99.90;;;;;;5014626;28;20456;-82
2023/11/01 05:50:36;;;;;;;2.63;1.43;;;12.30;99.90;;;;;;5014817;28;20536;-82
2023/11/01 05:53:08;;;;;;;4.90;1.83;;;12.30;99.90;;;;;;5015275;28;20891;-82
2023/11/01 05:55:37;;;;;;;2.03;1.30;;;12.30;99.90;;;;;;5015153;28;20494;-83
2023/11/01 05:58:05;;;;;;;5.70;3.20;;;12.30;99.90;;;;;;5014269;28;20450;-81
2023/11/01 06:00:33;;;;;;;2.53;1.10;;;12.30;99.90;;;;;;5014541;28;20494;-81
2023/11/01 06:02:59;;;;;;;1.83;1.07;;;12.30;99.90;;;;;;5014259;28;21033;-81
2023/11/01 06:05:26;;;;;;;2.03;1.03;;;12.30;99.90;;;;;;5014963;28;20951;-82
2023/11/01 06:07:54;;;;;;;4.23;1.60;;;12.30;99.90;;;;;;5014307;28;20463;-82
2023/11/01 06:10:29;;;;;;;4.00;1.47;;;12.30;99.90;;;;;;5015181;28;20836;-82
2023/11/01 06:12:55;;;;;;;2.40;1.33;;;12.40;99.90;;;;;;5014626;28;20461;-82
2023/11/01 06:15:22;;;;;;;3.20;1.70;;;12.40;99.90;;;;;;5014882;28;20580;-83
2023/11/01 06:17:49;;;;;;;2.80;1.40;;;12.40;99.90;;;;;;5018781;28;20527;-82
2023/11/01 06:20:16;;;;;;;5.20;1.30;;;12.40;99.90;;;;;;5014936;28;20509;-83
2023/11/01 06:22:43;;;;;;;2.87;1.50;;;12.40;99.90;;;;;;5016580;28;21026;-83
2023/11/01 06:25:11;;;;;;;1.97;1.20;;;12.30;99.90;;;;;;5018875;28;20486;-83
2023/11/01 06:27:38;;;;;;;3.57;1.83;;;12.40;99.90;;;;;;5018838;28;20814;-83
2023/11/01 06:30:06;;;;;;;3.67;1.53;;;12.40;99.90;;;;;;5015950;28;20452;-81
2023/11/01 06:32:35;;;;;;;4.50;1.70;;;12.40;99.90;;;;;;5015027;28;20456;-81
2023/11/01 06:35:02;;;;;;;5.30;1.50;;;12.40;99.90;;;;;;5014624;28;20480;-82
2023/11/01 06:37:34;;;;;;;3.10;1.47;;;12.50;99.90;;;;;;5014234;28;20454;-83
2023/11/01 06:40:01;;;;;;;7.83;1.63;;;12.50;99.90;;;;;;5014112;28;20509;-82
2023/11/01 06:42:29;;;;;;;3.80;1.50;;;12.50;99.90;;;;;;5014547;28;20466;-82
2023/11/01 06:44:56;;;;;;;6.43;1.63;;;12.50;99.90;;;;;;5014563;28;20483;-83
2023/11/01 06:47:23;;;;;;;4.63;2.00;;;12.50;99.90;;;;;;5013678;28;20465;-80
2023/11/01 06:49:50;;;;;;;4.50;1.90;;;12.50;99.90;;;;;;5013232;28;20942;-81
2023/11/01 06:52:17;;;;;;;6.90;1.40;;;12.50;99.90;;;;;;5014981;28;20837;-86
2023/11/01 06:54:44;;;;;;;3.90;1.50;;;12.50;99.90;;;;;;5014376;28;20485;-84
2023/11/01 06:57:11;;;;;;;7.00;1.70;;;12.50;99.90;;;;;;5014536;28;20462;-83
2023/11/01 06:59:42;;;;;;;4.70;1.80;;;12.50;99.90;;;;;;5014191;28;20465;-81
2023/11/01 07:02:09;;;;;;;7.07;1.70;;;12.50;99.90;;;;;;5016543;28;20452;-82
2023/11/01 07:04:36;;;;;;;5.40;1.63;;;12.50;99.90;;;;;;5020103;28;20500;-82
2023/11/01 07:07:03;;;;;;;5.70;1.40;;;12.50;99.90;;;;;;5021203;28;20526;-84
2023/11/01 07:09:31;;;;;;;9.43;2.30;;;12.50;99.90;;;;;;5019031;28;20450;-81
2023/11/01 07:11:58;;;;;;;6.07;1.70;;;12.50;99.90;;;;;;5020105;28;20490;-82
2023/11/01 07:14:25;;;;;;;3.40;1.40;;;12.60;99.90;;;;;;5020793;28;20476;-83
2023/11/01 07:16:53;;;;;;;3.90;1.80;;;12.60;99.90;;;;;;5021373;28;20497;-83
2023/11/01 07:19:20;;;;;;;9.10;1.90;;;12.60;99.90;;;;;;5021599;28;20447;-82
2023/11/01 07:21:50;;;;;;;5.53;1.90;;;12.60;99.90;;;;;;5021043;28;20483;-82
2023/11/01 07:24:16;;;;;;;5.30;1.40;;;12.60;99.90;;;;;;5013220;28;20514;-82
2023/11/01 07:26:43;;;;;;;3.63;1.77;;;12.60;99.90;;;;;;5020888;28;20456;-84
2023/11/01 07:29:10;;;;;;;9.73;1.83;;;12.60;99.90;;;;;;5021012;28;20452;-82
2023/11/01 07:31:37;;;;;;;2.33;1.17;;;12.60;99.90;;;;;;5021856;28;21049;-83
2023/11/01 07:34:06;;;;;;;3.90;1.40;;;12.70;99.90;;;;;;5020740;28;20841;-84
2023/11/01 07:36:32;;;;;;;4.23;1.47;;;12.70;99.90;;;;;;5021298;28;20473;-83
2023/11/01 07:38:59;;;;;;;7.57;1.63;;;12.70;99.90;;;;;;5020678;28;20453;-83
2023/11/01 07:41:26;;;;;;;4.80;1.73;;;12.70;99.90;;;;;;5020942;28;20461;-83
2023/11/01 07:43:53;;;;;;;3.83;1.60;;;12.80;99.90;;;;;;5020802;28;20509;-84
2023/11/01 07:46:20;;;;;;;4.67;1.67;;;12.80;99.90;;;;;;5021057;28;20457;-83
2023/11/01 07:48:47;;;;;;;3.43;1.50;;;12.80;99.90;;;;;;5022478;28;20519;-84
2023/11/01 07:51:15;;;;;;;2.50;1.40;;;12.90;99.90;;;;;;5022600;28;20455;-85
2023/11/01 07:53:42;;;;;;;6.20;1.30;;;12.90;99.90;;;;;;5022647;28;20507;-84
2023/11/01 07:56:10;;;;;;;6.77;1.40;;;13.00;99.90;;;;;;5021899;28;20511;-85
2023/11/01 07:58:43;;;;;;;3.10;1.40;;;13.00;99.90;;;;;;5026752;28;20467;-83
2023/11/01 08:01:10;;;;;;;2.33;1.50;;;13.00;99.90;;;;;;5019396;28;20448;-82
2023/11/01 08:03:38;;;;;;;4.67;1.70;;;13.10;99.90;;;;;;5019221;28;21124;-83
2023/11/01 08:06:08;;;;;;;5.73;1.60;;;13.20;99.90;;;;;;5018340;28;20496;-82
2023/11/01 08:08:36;;;;;;;3.33;1.30;;;13.30;99.90;;;;;;5018903;28;20467;-83
2023/11/01 08:11:03;;;;;;;4.67;1.40;;;13.40;99.90;;;;;;5019410;28;20488;-83
2023/11/01 08:13:29;;;;;;;6.73;1.50;;;13.40;99.90;;;;;;5019604;28;20536;-84
2023/11/01 08:15:56;;;;;;;6.50;1.60;;;13.50;99.90;;;;;;5015093;28;20468;-84
2023/11/01 08:18:23;;;;;;;2.70;1.10;;;13.60;99.90;;;;;;5014308;28;20978;-83
2023/11/01 08:20:52;;;;;;;4.03;1.40;;;13.70;99.90;;;;;;5014829;28;21024;-83
2023/11/01 08:23:18;;;;;;;5.90;2.50;;;13.70;99.90;;;;;;5016813;28;20584;-84
2023/11/01 08:25:46;;;;;;;4.17;1.80;;;13.80;99.90;;;;;;5018050;28;20457;-82
2023/11/01 08:28:13;;;;;;;2.40;1.17;;;13.80;99.90;;;;;;5019464;28;20458;-84
2023/11/01 08:30:40;;;;;;;5.07;1.40;;;13.90;99.90;;;;;;5020904;28;20456;-82
2023/11/01 08:33:10;;;;;;;7.17;2.53;;;14.00;99.90;;;;;;5019653;28;20487;-84
2023/11/01 08:35:37;;;;;;;4.13;1.40;;;13.90;99.90;;;;;;5020385;28;20487;-86
2023/11/01 08:38:06;;;;;;;4.47;1.60;;;13.90;99.90;;;;;;5019136;28;20463;-85
2023/11/01 08:40:32;;;;;;;5.30;1.60;;;14.00;99.90;;;;;;5021409;28;20463;-85
2023/11/01 08:43:01;;;;;;;6.33;1.40;;;14.10;99.90;;;;;;5022489;28;20451;-85
2023/11/01 08:45:28;;;;;;;4.70;1.20;;;14.10;99.90;;;;;;5026913;28;21060;-86
2023/11/01 08:47:54;;;;;;;2.40;1.23;;;14.10;99.90;;;;;;5021295;28;20513;-83
2023/11/01 08:50:21;;;;;;;2.80;1.30;;;14.10;99.90;;;;;;5018458;28;20462;-83
2023/11/01 08:52:48;;;;;;;4.60;1.73;;;14.30;99.90;;;;;;5017431;28;20450;-84
2023/11/01 08:55:16;;;;;;;7.50;1.53;;;14.40;99.90;;;;;;5020005;28;20477;-82
2023/11/01 08:57:44;;;;;;;2.37;1.30;;;14.40;99.90;;;;;;5017843;28;20453;-83
2023/11/01 09:00:14;;;;;;;2.70;1.10;;;14.50;99.90;;;;;;5017937;28;20494;-81
2023/11/01 09:02:43;;;;;;;5.00;1.80;;;14.60;99.90;;;;;;5020740;28;20510;-82
2023/11/01 09:05:10;;;;;;;4.67;1.63;;;14.50;99.90;;;;;;5018644;28;20515;-81
2023/11/01 09:07:38;;;;;;;2.70;1.50;;;14.50;99.90;;;;;;5016955;28;20518;-81
2023/11/01 09:10:07;;;;;;;3.47;1.47;;;14.60;99.90;;;;;;5016314;28;20920;-82
2023/11/01 09:12:34;;;;;;;5.90;1.60;;;14.60;99.90;;;;;;5018031;28;20978;-82
2023/11/01 09:15:01;;;;;;;7.77;1.63;;;14.70;99.90;;;;;;5016755;28;20468;-81
2023/11/01 09:17:29;;;;;;;5.87;1.60;;;14.60;99.90;;;;;;5017481;28;20942;-82
2023/11/01 09:19:56;;;;;;;4.17;1.43;;;14.70;99.90;;;;;;5016190;28;20475;-82
2023/11/01 09:22:23;;;;;;;6.40;1.40;;;14.70;99.90;;;;;;5016307;28;20455;-81
2023/11/01 09:24:50;;;;;;;2.73;1.10;;;14.70;99.90;;;;;;5016588;28;20497;-83
2023/11/01 09:27:17;;;;;;;4.80;1.70;;;14.70;99.90;;;;;;5019043;28;20462;-81
2023/11/01 09:29:43;;;;;;;6.53;1.40;;;14.80;99.90;;;;;;5027066;28;20453;-81
2023/11/01 09:32:12;;;;;;;14.90;2.20;;;14.90;99.90;;;;;;5025617;28;20468;-81
2023/11/01 09:34:40;;;;;;;6.00;1.10;;;14.90;99.90;;;;;;5022793;28;20480;-81
2023/11/01 09:37:07;;;;;;;6.27;1.53;;;14.90;99.90;;;;;;5018998;28;20571;-81
2023/11/01 09:39:36;;;;;;;3.00;1.50;;;14.90;99.90;;;;;;5018237;28;20553;-81
2023/11/01 09:42:07;;;;;;;4.17;1.20;;;14.90;99.90;;;;;;5017881;28;20552;-81
2023/11/01 09:44:37;;;;;;;3.70;1.57;;;15.00;99.90;;;;;;5021697;28;20939;-82
2023/11/01 09:47:04;;;;;;;4.20;1.30;;;15.00;99.90;;;;;;5018487;28;20484;-82
2023/11/01 09:49:35;;;;;;;6.17;1.17;;;15.00;99.90;;;;;;5017147;28;20457;-82
2023/11/01 09:52:04;;;;;;;4.70;1.10;;;15.10;99.90;;;;;;5016394;28;20461;-80
2023/11/01 09:54:31;;;;;;;3.07;1.07;;;15.10;99.90;;;;;;5016410;28;20471;-82
2023/11/01 09:57:01;;;;;;;5.20;1.53;;;15.20;99.90;;;;;;5016256;28;20465;-81
2023/11/01 09:59:28;;;;;;;5.93;1.47;;;15.20;99.90;;;;;;5018388;28;20458;-81
2023/11/01 10:01:55;;;;;;;4.50;1.27;;;15.10;97.60;;;;;;5017499;28;20461;-83
2023/11/01 10:04:23;;;;;;;8.80;1.37;;;15.10;99.90;;;;;;5016294;28;20507;-82
2023/11/01 10:06:52;;;;;;;3.00;1.17;;;15.20;99.90;;;;;;5018398;28;20572;-81
2023/11/01 10:09:20;;;;;;;4.30;1.43;;;15.30;99.90;;;;;;5018840;28;20458;-83
2023/11/01 10:11:53;;;;;;;4.30;1.37;;;15.40;94.20;;;;;;5018397;28;20841;-83
2023/11/01 10:14:29;;;;;;;5.73;1.77;;;15.60;99.90;;;;;;5018461;28;20888;-82
2023/11/01 10:17:00;;;;;;;2.33;1.00;;;15.70;60.70;;;;;;5018265;28;20458;-83
2023/11/01 10:19:27;;;;;;;6.53;1.10;;;15.50;46.70;;;;;;5017149;28;20452;-83
2023/11/01 10:21:59;;;;;;;4.20;1.40;;;15.60;40.20;;;;;;5017848;28;20446;-81
2023/11/01 10:24:28;;;;;;;3.83;1.30;;;15.50;51.80;;;;;;5000374;28;20536;-83
2023/11/01 10:26:56;;;;;;;3.00;1.40;;;15.50;56.50;;;;;;5017957;28;20490;-83
2023/11/01 10:29:23;;;;;;;6.23;1.23;;;15.40;24.90;;;;;;5018276;28;20480;-82
2023/11/01 10:31:54;;;;;;;2.13;1.10;;;15.40;15.70;;;;;;5018595;28;20862;-83
2023/11/01 10:34:27;;;;;;;4.13;3.37;;;15.50;55.10;;;;;;5018450;28;20477;-83
2023/11/01 10:36:54;;;;;;;4.40;1.57;;;15.40;46.30;;;;;;5018928;28;20454;-83
2023/11/01 10:39:23;;;;;;;5.30;1.37;;;15.40;26.70;;;;;;5018372;28;20481;-83
2023/11/01 10:41:52;;;;;;;4.57;1.60;;;15.40;23.80;;;;;;5017771;28;20463;-83
2023/11/01 10:44:25;;;;;;;4.43;1.40;;;15.50;35.00;;;;;;5017404;28;20507;-84
2023/11/01 10:46:53;;;;;;;2.63;1.03;;;15.70;32.30;;;;;;5018498;28;20461;-84
2023/11/01 10:49:30;;;;;;;7.67;1.37;;;16.10;1.00;;;;;;5018463;28;20845;-83
2023/11/01 10:52:00;;;;;;;2.10;0.90;;;16.40;1.00;;;;;;5024799;28;20457;-82
2023/11/01 10:54:34;;;;;;;5.53;1.23;;;16.80;1.00;;;;;;5027434;28;20462;-82
2023/11/01 10:57:03;;;;;;;4.77;1.20;;;17.50;1.00;;;;;;5017062;28;20462;-81
2023/11/01 10:59:37;;;;;;;3.00;1.07;;;18.30;1.00;;;;;;5016334;28;20535;-83
2023/11/01 11:02:12;;;;;;;4.20;1.10;;;19.30;1.00;;;;;;5016494;28;20457;-82
2023/11/01 11:04:47;;;;;;;4.53;1.30;;;19.90;1.00;;;;;;5017656;28;21072;-83
2023/11/01 11:07:22;;;;;;;3.03;1.00;;;20.60;99.90;;;;;;5018775;28;20467;-84
2023/11/01 11:09:49;;;;;;;3.43;1.10;;;21.10;99.90;;;;;;5016934;28;20964;-84
2023/11/01 11:12:20;;;;;;;7.27;1.47;;;22.10;91.90;;;;;;5017246;28;20460;-83
2023/11/01 11:14:54;;;;;;;3.93;1.37;;;22.00;1.00;;;;;;5018432;28;20468;-83
2023/11/01 11:17:23;;;;;;;5.87;1.50;;;22.60;1.00;;;;;;5016917;28;20461;-84
2023/11/01 11:20:12;;;;;;;2.77;1.17;;;23.70;1.00;;;;;;5017185;28;20492;-83
2023/11/01 11:23:13;;;;;;;3.17;1.10;;;23.90;1.00;;;;;;5018415;28;20465;-84
2023/11/01 11:25:49;;;;;;;5.87;1.27;;;23.70;1.00;;;;;;5018129;28;20493;-82
2023/11/01 11:28:46;;;;;;;3.70;1.20;;;24.10;1.00;;;;;;5010568;28;20961;-83
2023/11/01 11:31:17;;;;;;;4.37;1.27;;;24.40;1.00;;;;;;5018161;28;20450;-82
2023/11/01 11:34:10;;;;;;;5.40;1.40;;;25.20;1.00;;;;;;5018175;28;20502;-82
2023/11/01 11:36:39;;;;;;;3.90;1.30;;;25.40;1.00;;;;;;5016984;28;20457;-81
2023/11/01 11:39:10;;;;;;;4.07;1.13;;;25.70;1.00;;;;;;5017283;28;21041;-81
2023/11/01 11:41:47;;;;;;;4.00;1.40;;;25.70;1.00;;;;;;5017036;28;20771;-83
2023/11/01 11:44:18;;;;;;;3.00;1.30;;;24.70;1.00;;;;;;5009057;28;20526;-81
2023/11/01 11:46:53;;;;;;;7.20;1.40;;;23.00;1.00;;;;;;5018035;28;20464;-82
2023/11/01 11:49:24;;;;;;;5.63;1.20;;;22.00;1.00;;;;;;5018511;28;20442;-81
2023/11/01 11:52:02;;;;;;;5.00;1.53;;;21.20;1.00;;;;;;5019660;28;20988;-82
2023/11/01 11:54:32;;;;;;;2.10;1.00;;;20.10;1.00;;;;;;5020265;28;20501;-83
2023/11/01 11:57:05;;;;;;;3.87;1.10;;;19.90;27.70;;;;;;5021633;28;20453;-82
2023/11/01 11:59:34;;;;;;;7.20;1.10;;;20.40;99.90;;;;;;5021679;28;20449;-83
2023/11/01 12:02:07;;;;;;;4.50;1.10;;;20.40;1.00;;;;;;5021040;28;20453;-82
2023/11/01 12:04:37;;;;;;;3.37;1.30;;;20.20;99.90;;;;;;5027371;28;20556;-81
2023/11/01 12:07:04;;;;;;;3.87;0.90;;;20.10;1.00;;;;;;5021121;28;20457;-81
2023/11/01 12:09:37;;;;;;;3.40;1.40;;;20.00;1.00;;;;;;5020902;28;20457;-84
2023/11/01 12:12:11;;;;;;;3.90;1.40;;;19.70;1.00;;;;;;5021689;28;20457;-81
2023/11/01 12:14:40;;;;;;;4.33;1.40;;;19.30;1.00;;;;;;5020804;28;20544;-82
2023/11/01 12:17:07;;;;;;;4.50;1.17;;;18.90;1.00;;;;;;5020960;28;20456;-82
2023/11/01 12:19:43;;;;;;;5.40;1.60;;;18.70;1.00;;;;;;5021187;28;21051;-82
2023/11/01 12:22:10;;;;;;;5.37;1.33;;;18.80;99.90;;;;;;5021152;28;20461;-82
2023/11/01 12:24:42;;;;;;;5.47;1.37;;;18.80;1.00;;;;;;5020790;28;20501;-82
2023/11/01 12:27:10;;;;;;;5.37;1.37;;;18.50;99.90;;;;;;5019978;28;20487;-81
2023/11/01 12:29:42;;;;;;;8.20;1.40;;;18.40;55.10;;;;;;5021442;28;20475;-82
2023/11/01 12:32:10;;;;;;;5.27;1.27;;;18.60;1.00;;;;;;5022642;28;20445;-81
2023/11/01 12:34:39;;;;;;;3.67;1.40;;;18.30;99.90;;;;;;5025020;28;20556;-82
2023/11/01 12:37:09;;;;;;;4.70;1.13;;;18.30;99.90;;;;;;5022905;28;20459;-82
2023/11/01 12:39:36;;;;;;;3.07;1.10;;;18.40;99.90;;;;;;5022934;28;20456;-82
2023/11/01 12:42:22;;;;;;;4.00;1.30;;;18.00;1.00;;;;;;5025741;28;20456;-80
2023/11/01 12:44:52;;;;;;;3.83;1.13;;;17.70;58.30;;;;;;5019474;28;20497;-81
2023/11/01 12:47:19;;;;;;;3.93;1.20;;;17.70;1.00;;;;;;5019038;28;21003;-81
2023/11/01 12:49:47;;;;;;;7.50;1.33;;;18.00;1.00;;;;;;5018934;28;20945;-81
2023/11/01 12:52:17;;;;;;;8.23;1.83;;;18.30;99.90;;;;;;5024674;28;20462;-81
2023/11/01 12:54:48;;;;;;;4.23;1.10;;;18.60;1.00;;;;;;5024013;28;20497;-81